Time;durP1;ratioP1;P1;durP2;ratioP2;P2;SDS_P1;SDS_P2;PMS_P1;PMS_P2;Temp;Humidity;BMP_temperature;BMP_pressure;BME280_temperature;BME280_humidity;BME280_pressure;Samples;Min_cycle;Max_cycle;Signal;HPM_P1;HPM_P2
2022/07/05 00:00:14;;;;;;;9.40;3.15;;;41.00;23.20;;;;;;4949986;29;20084;-65
2022/07/05 00:02:41;;;;;;;18.38;3.50;;;41.00;23.70;;;;;;4949400;28;20504;-68
2022/07/05 00:05:07;;;;;;;16.90;3.30;;;40.90;23.80;;;;;;4949182;28;20058;-66
2022/07/05 00:07:34;;;;;;;11.15;2.85;;;40.90;23.70;;;;;;4949870;28;20065;-66
2022/07/05 00:10:00;;;;;;;15.02;3.25;;;41.00;23.80;;;;;;4949554;29;20049;-66
2022/07/05 00:12:31;;;;;;;14.00;3.40;;;40.90;23.30;;;;;;4950505;29;20051;-66
2022/07/05 00:14:59;;;;;;;26.05;4.05;;;40.90;23.80;;;;;;4948580;29;20079;-66
2022/07/05 00:17:25;;;;;;;10.13;2.90;;;40.90;23.40;;;;;;4950245;29;20055;-66
2022/07/05 00:19:52;;;;;;;16.95;3.47;;;40.90;23.30;;;;;;4948814;28;20070;-65
2022/07/05 00:22:18;;;;;;;16.75;3.25;;;40.90;23.30;;;;;;4949726;28;20142;-67
2022/07/05 00:24:45;;;;;;;14.55;3.65;;;40.90;23.00;;;;;;4949867;28;20050;-65
2022/07/05 00:27:11;;;;;;;15.30;3.50;;;40.90;23.40;;;;;;4948681;28;20109;-68
2022/07/05 00:29:37;;;;;;;16.85;3.65;;;40.90;23.40;;;;;;4949436;28;20051;-69
2022/07/05 00:32:04;;;;;;;11.07;2.97;;;40.70;23.30;;;;;;4949121;28;20070;-66
2022/07/05 00:34:30;;;;;;;13.27;2.83;;;40.60;23.40;;;;;;4965342;28;20151;-67
2022/07/05 00:36:57;;;;;;;13.18;3.05;;;40.60;23.20;;;;;;4949203;29;20074;-67
2022/07/05 00:39:23;;;;;;;21.55;3.40;;;40.60;22.80;;;;;;4950115;29;20056;-66
2022/07/05 00:41:50;;;;;;;17.50;3.28;;;40.50;22.90;;;;;;4948008;28;20056;-69
2022/07/05 00:44:16;;;;;;;15.52;3.97;;;40.30;22.90;;;;;;4948846;28;20078;-66
2022/07/05 00:46:44;;;;;;;12.60;4.97;;;40.20;23.00;;;;;;4948254;29;20155;-66
2022/07/05 00:49:10;;;;;;;9.57;4.65;;;40.30;23.40;;;;;;4950163;28;20059;-67
2022/07/05 00:51:38;;;;;;;15.32;5.75;;;40.20;23.50;;;;;;4948744;28;20057;-66
2022/07/05 00:54:07;;;;;;;14.60;5.30;;;40.10;23.60;;;;;;4948345;29;20164;-67
2022/07/05 00:56:34;;;;;;;20.08;4.57;;;40.10;23.50;;;;;;4949154;28;20683;-68
2022/07/05 00:59:00;;;;;;;12.60;3.05;;;40.00;23.70;;;;;;4949765;28;20521;-68
2022/07/05 01:01:27;;;;;;;14.30;2.88;;;39.80;22.90;;;;;;4932958;29;20095;-69
2022/07/05 01:03:54;;;;;;;7.72;2.38;;;39.60;23.00;;;;;;4949185;28;20050;-69
2022/07/05 01:06:20;;;;;;;13.48;2.70;;;39.40;23.10;;;;;;4949618;28;20135;-66
2022/07/05 01:08:47;;;;;;;8.30;2.47;;;39.30;23.20;;;;;;4950725;29;20517;-67
2022/07/05 01:11:14;;;;;;;9.43;2.10;;;39.30;22.90;;;;;;4949267;28;20061;-66
2022/07/05 01:13:41;;;;;;;9.70;2.40;;;39.30;22.90;;;;;;4949392;29;20098;-64
2022/07/05 01:16:15;;;;;;;9.25;2.42;;;39.30;23.20;;;;;;4948183;29;20065;-66
2022/07/05 01:18:44;;;;;;;13.15;2.30;;;39.40;23.00;;;;;;4948262;28;20144;-65
2022/07/05 01:21:15;;;;;;;7.78;2.42;;;39.30;23.00;;;;;;4948518;28;20436;-69
2022/07/05 01:23:42;;;;;;;11.10;3.13;;;39.10;23.00;;;;;;4947498;29;20058;-67
2022/07/05 01:26:09;;;;;;;6.53;2.10;;;39.00;23.50;;;;;;4948615;28;20074;-68
2022/07/05 01:28:35;;;;;;;14.10;2.88;;;39.00;23.20;;;;;;4950922;29;20061;-67
2022/07/05 01:31:02;;;;;;;11.18;2.85;;;38.90;23.40;;;;;;4952449;28;20062;-63
2022/07/05 01:33:30;;;;;;;10.00;2.08;;;38.90;23.90;;;;;;4948283;29;20424;-68
2022/07/05 01:35:57;;;;;;;13.13;2.83;;;38.80;23.10;;;;;;4966374;28;20209;-67
2022/07/05 01:38:25;;;;;;;9.73;2.60;;;38.80;23.30;;;;;;4952580;28;20076;-67
2022/07/05 01:40:51;;;;;;;13.50;2.45;;;38.60;23.80;;;;;;4954011;29;20057;-68
2022/07/05 01:43:27;;;;;;;10.10;2.55;;;38.40;24.00;;;;;;4949099;29;20057;-66
2022/07/05 01:45:56;;;;;;;8.43;2.30;;;38.30;23.70;;;;;;4950913;29;20062;-66
2022/07/05 01:48:23;;;;;;;9.43;2.20;;;38.20;23.90;;;;;;4950851;29;20062;-65
2022/07/05 01:50:53;;;;;;;14.38;2.53;;;38.10;23.30;;;;;;4951906;28;20071;-65
2022/07/05 01:53:24;;;;;;;10.57;2.30;;;38.10;23.30;;;;;;4952941;28;20069;-69
2022/07/05 01:55:51;;;;;;;13.40;2.45;;;38.10;23.50;;;;;;4953158;28;20568;-69
2022/07/05 01:58:17;;;;;;;9.20;2.30;;;38.00;23.40;;;;;;4952308;29;20051;-71
2022/07/05 02:00:49;;;;;;;11.05;2.30;;;37.90;23.60;;;;;;4952595;29;20539;-69
2022/07/05 02:03:16;;;;;;;5.43;2.05;;;37.80;23.60;;;;;;4951325;29;20151;-68
2022/07/05 02:05:44;;;;;;;5.60;1.55;;;37.80;24.00;;;;;;4951548;29;20134;-72
2022/07/05 02:08:12;;;;;;;13.55;2.33;;;37.70;24.00;;;;;;4952251;29;20076;-67
2022/07/05 02:10:40;;;;;;;10.70;2.42;;;37.70;24.20;;;;;;4953381;28;20063;-66
2022/07/05 02:13:07;;;;;;;11.40;2.40;;;37.50;23.80;;;;;;4935802;29;20117;-66
2022/07/05 02:15:35;;;;;;;10.18;2.70;;;37.50;23.60;;;;;;4951154;29;20521;-65
2022/07/05 02:18:02;;;;;;;11.20;2.55;;;37.40;24.00;;;;;;4935500;29;20060;-62
2022/07/05 02:20:30;;;;;;;9.20;2.47;;;37.40;24.40;;;;;;4934669;29;20519;-66
2022/07/05 02:22:57;;;;;;;15.48;2.67;;;37.30;24.30;;;;;;4951741;28;20066;-71
2022/07/05 02:25:24;;;;;;;11.65;2.00;;;37.20;24.50;;;;;;4952670;29;20208;-64
2022/07/05 02:27:54;;;;;;;7.07;2.33;;;37.10;24.60;;;;;;4935502;29;20075;-64
2022/07/05 02:30:21;;;;;;;8.77;2.00;;;37.00;24.50;;;;;;4936304;29;20081;-69
2022/07/05 02:32:47;;;;;;;7.47;2.50;;;36.90;24.40;;;;;;4951425;28;20073;-68
2022/07/05 02:35:14;;;;;;;8.63;2.10;;;36.80;24.50;;;;;;4935452;29;20086;-64
2022/07/05 02:37:40;;;;;;;16.50;2.65;;;36.80;24.90;;;;;;4935373;29;20505;-66
2022/07/05 02:40:11;;;;;;;7.32;1.77;;;36.70;24.60;;;;;;4951340;28;20073;-66
2022/07/05 02:42:39;;;;;;;14.35;2.65;;;36.60;24.80;;;;;;4952053;29;20131;-67
2022/07/05 02:45:06;;;;;;;13.70;2.50;;;36.60;25.00;;;;;;4949548;28;20162;-68
2022/07/05 02:47:33;;;;;;;9.85;2.60;;;37.00;25.40;;;;;;4950665;28;20148;-67
2022/07/05 02:50:10;;;;;;;17.33;2.58;;;37.40;24.90;;;;;;4952417;28;20531;-67
2022/07/05 02:52:37;;;;;;;14.57;2.58;;;37.60;24.80;;;;;;4935167;29;20077;-67
2022/07/05 02:55:04;;;;;;;20.23;2.72;;;37.70;24.60;;;;;;4951249;29;20467;-66
2022/07/05 02:57:31;;;;;;;6.72;1.80;;;37.80;24.70;;;;;;4950479;29;20054;-67
2022/07/05 02:59:58;;;;;;;8.88;2.25;;;37.80;24.60;;;;;;4951730;29;20142;-67
2022/07/05 03:02:26;;;;;;;10.40;2.40;;;37.70;24.60;;;;;;4950686;28;20067;-67
2022/07/05 03:04:53;;;;;;;13.85;2.67;;;37.70;24.70;;;;;;4950902;29;20073;-67
2022/07/05 03:07:19;;;;;;;10.18;2.45;;;37.70;24.70;;;;;;4951640;29;20065;-67
2022/07/05 03:09:46;;;;;;;13.90;2.53;;;37.50;24.80;;;;;;4949611;29;20433;-67
2022/07/05 03:12:12;;;;;;;20.58;2.70;;;37.60;24.80;;;;;;4949972;29;20121;-69
2022/07/05 03:14:38;;;;;;;18.40;2.30;;;37.40;24.60;;;;;;4951508;28;20095;-69
2022/07/05 03:17:05;;;;;;;11.85;2.80;;;37.40;23.30;;;;;;4951523;29;20083;-70
2022/07/05 03:19:31;;;;;;;12.27;2.50;;;37.10;23.10;;;;;;4950651;29;20062;-68
2022/07/05 03:21:58;;;;;;;8.23;1.95;;;37.00;22.80;;;;;;4950039;29;20889;-67
2022/07/05 03:24:24;;;;;;;12.65;2.17;;;36.90;22.80;;;;;;4949679;28;20168;-66
2022/07/05 03:26:50;;;;;;;18.20;3.30;;;36.80;22.70;;;;;;4949762;28;20103;-67
2022/07/05 03:29:17;;;;;;;16.15;3.03;;;36.70;22.80;;;;;;4951354;28;20075;-67
2022/07/05 03:31:43;;;;;;;11.13;2.30;;;36.70;22.50;;;;;;4951109;29;20075;-68
2022/07/05 03:34:10;;;;;;;7.05;2.47;;;36.60;22.60;;;;;;4950149;28;20085;-68
2022/07/05 03:36:37;;;;;;;13.80;2.75;;;36.60;22.70;;;;;;4950327;29;20089;-66
2022/07/05 03:39:03;;;;;;;9.23;2.13;;;36.50;22.70;;;;;;4950651;29;20069;-68
2022/07/05 03:41:30;;;;;;;14.85;2.85;;;36.50;22.60;;;;;;4952731;29;20159;-65
2022/07/05 03:47:01;;;;;;;22.52;3.20;;;36.40;22.80;;;;;;4932978;29;20114;-64
2022/07/05 03:49:28;;;;;;;13.05;2.90;;;36.20;23.40;;;;;;4946912;28;20129;-63
2022/07/05 03:51:54;;;;;;;16.83;3.10;;;36.10;23.30;;;;;;4948496;29;20118;-63
2022/07/05 03:54:21;;;;;;;31.10;3.58;;;36.10;23.20;;;;;;4950683;29;20075;-62
2022/07/05 03:56:47;;;;;;;19.75;3.20;;;36.00;23.10;;;;;;4946385;29;20173;-63
2022/07/05 03:59:13;;;;;;;26.20;3.70;;;35.90;23.90;;;;;;4951214;28;20079;-63
2022/07/05 04:01:40;;;;;;;14.63;3.90;;;35.90;24.60;;;;;;4950017;28;20126;-64
2022/07/05 04:04:06;;;;;;;19.33;5.20;;;35.70;27.30;;;;;;4951312;28;20075;-64
2022/07/05 04:06:33;;;;;;;18.20;5.32;;;35.60;31.40;;;;;;4951487;29;20081;-65
2022/07/05 04:08:59;;;;;;;23.05;6.15;;;35.60;32.40;;;;;;4950388;29;20075;-63
2022/07/05 04:11:26;;;;;;;29.02;6.50;;;35.50;33.80;;;;;;4950480;28;20154;-62
2022/07/05 04:13:52;;;;;;;22.92;6.22;;;35.30;34.20;;;;;;4951074;29;20083;-65
2022/07/05 04:16:18;;;;;;;20.92;6.38;;;35.10;34.50;;;;;;4949533;28;20094;-63
2022/07/05 04:18:45;;;;;;;22.73;6.60;;;35.10;34.90;;;;;;4950115;29;20129;-66
2022/07/05 04:21:11;;;;;;;29.98;7.13;;;34.90;35.60;;;;;;4951159;29;20437;-64
2022/07/05 04:23:38;;;;;;;25.95;7.47;;;34.80;36.10;;;;;;4949893;28;20118;-66
2022/07/05 04:26:04;;;;;;;22.90;7.00;;;34.70;36.10;;;;;;4951173;29;20542;-64
2022/07/05 04:28:31;;;;;;;25.02;6.63;;;34.70;36.00;;;;;;4949303;28;20525;-64
2022/07/05 04:30:58;;;;;;;21.48;6.03;;;34.90;36.10;;;;;;4950299;29;20210;-65
2022/07/05 04:33:25;;;;;;;39.08;7.30;;;34.90;35.90;;;;;;4948769;29;20591;-63
2022/07/05 04:35:52;;;;;;;34.67;7.47;;;34.80;36.00;;;;;;4949087;28;20188;-62
2022/07/05 04:38:18;;;;;;;17.63;5.45;;;34.80;36.40;;;;;;4949639;28;20091;-62
2022/07/05 04:40:44;;;;;;;25.42;7.53;;;34.50;30.00;;;;;;4950115;28;20143;-61
2022/07/05 04:43:11;;;;;;;18.23;6.75;;;34.40;27.90;;;;;;4949635;28;20497;-61
2022/07/05 04:45:37;;;;;;;17.35;5.30;;;34.30;27.30;;;;;;4948507;28;20529;-60
2022/07/05 04:48:04;;;;;;;28.42;5.72;;;34.20;27.20;;;;;;4918106;29;20102;-60
2022/07/05 04:50:31;;;;;;;17.83;4.03;;;34.20;26.50;;;;;;4949746;28;20129;-60
2022/07/05 04:52:57;;;;;;;9.57;3.13;;;34.20;26.50;;;;;;4949635;28;20092;-62
2022/07/05 04:55:24;;;;;;;12.95;3.13;;;34.10;27.00;;;;;;4950061;29;20090;-61
2022/07/05 04:57:50;;;;;;;19.83;3.63;;;34.00;26.70;;;;;;4948888;28;20086;-60
2022/07/05 05:00:16;;;;;;;13.52;3.00;;;33.90;27.00;;;;;;4965760;28;20111;-59
2022/07/05 05:02:43;;;;;;;28.40;3.55;;;33.90;26.60;;;;;;4950280;28;20434;-58
2022/07/05 05:05:09;;;;;;;24.20;4.00;;;33.90;26.50;;;;;;4949085;28;20075;-55
2022/07/05 05:07:38;;;;;;;21.58;3.97;;;33.90;26.10;;;;;;4949773;28;20094;-59
2022/07/05 05:10:06;;;;;;;16.65;3.42;;;33.80;25.80;;;;;;4949612;28;20525;-60
2022/07/05 05:12:32;;;;;;;26.33;3.17;;;33.80;25.90;;;;;;4953188;28;20083;-58
2022/07/05 05:14:58;;;;;;;19.15;3.13;;;33.80;25.50;;;;;;4936842;29;20226;-58
2022/07/05 05:17:25;;;;;;;22.27;3.50;;;33.80;25.40;;;;;;4953801;28;20456;-58
2022/07/05 05:19:51;;;;;;;21.25;3.60;;;33.70;25.70;;;;;;4936518;29;20129;-59
2022/07/05 05:22:18;;;;;;;15.95;2.78;;;33.60;25.60;;;;;;4953490;29;20165;-58
2022/07/05 05:24:44;;;;;;;14.00;2.92;;;33.60;25.10;;;;;;4953145;28;20075;-59
2022/07/05 05:27:10;;;;;;;22.17;3.50;;;33.60;25.20;;;;;;4936864;29;20090;-59
2022/07/05 05:29:37;;;;;;;13.93;3.17;;;33.50;25.10;;;;;;4953714;28;20086;-61
2022/07/05 05:32:03;;;;;;;12.38;2.80;;;33.40;24.50;;;;;;4952595;28;20162;-60
2022/07/05 05:34:30;;;;;;;10.02;2.45;;;33.20;24.40;;;;;;4952293;29;20218;-60
2022/07/05 05:36:56;;;;;;;11.88;2.80;;;33.20;24.40;;;;;;4952446;28;20094;-61
2022/07/05 05:39:22;;;;;;;6.25;2.40;;;33.20;24.00;;;;;;4951473;28;20082;-60
2022/07/05 05:41:49;;;;;;;13.23;2.58;;;33.20;23.90;;;;;;4936694;29;20157;-59
2022/07/05 05:44:15;;;;;;;8.95;2.70;;;33.00;23.70;;;;;;4952239;28;20078;-59
2022/07/05 05:46:41;;;;;;;8.98;2.00;;;32.90;24.20;;;;;;4935425;29;20078;-59
2022/07/05 05:49:08;;;;;;;11.57;2.25;;;32.90;24.10;;;;;;4951456;29;20078;-60
2022/07/05 05:51:34;;;;;;;7.55;1.95;;;32.90;24.40;;;;;;4951244;29;20089;-59
2022/07/05 05:54:00;;;;;;;6.13;1.80;;;32.80;23.80;;;;;;4949972;28;20085;-60
2022/07/05 05:56:27;;;;;;;8.00;1.90;;;32.80;24.50;;;;;;4952092;29;20611;-61
2022/07/05 05:58:53;;;;;;;7.50;1.67;;;32.70;24.60;;;;;;4950131;28;20165;-59
2022/07/05 06:01:20;;;;;;;11.80;1.52;;;32.70;24.30;;;;;;4951338;29;20173;-60
2022/07/05 06:03:46;;;;;;;9.77;1.65;;;32.70;24.50;;;;;;4940630;28;20075;-63
2022/07/05 06:06:12;;;;;;;8.98;1.50;;;32.70;24.50;;;;;;4933970;29;20448;-61
2022/07/05 06:08:39;;;;;;;9.90;1.52;;;32.30;24.90;;;;;;4933682;29;20075;-61
2022/07/05 06:11:05;;;;;;;5.47;1.65;;;32.30;24.70;;;;;;4933508;29;20102;-61
2022/07/05 06:13:32;;;;;;;5.03;1.70;;;32.30;25.00;;;;;;4950902;29;20099;-61
2022/07/05 06:15:58;;;;;;;7.22;2.08;;;32.30;25.50;;;;;;4951927;28;20082;-59
2022/07/05 06:18:25;;;;;;;9.15;1.50;;;32.20;25.50;;;;;;4951695;28;20591;-61
2022/07/05 06:20:51;;;;;;;9.75;1.75;;;32.00;25.80;;;;;;4951159;28;20079;-61
2022/07/05 06:23:18;;;;;;;7.20;1.80;;;31.90;26.10;;;;;;4951185;28;20087;-60
2022/07/05 06:25:44;;;;;;;9.82;2.03;;;31.80;26.40;;;;;;4950756;29;20078;-63
2022/07/05 06:28:10;;;;;;;10.32;2.00;;;31.80;26.50;;;;;;4950829;29;20143;-60
2022/07/05 06:30:39;;;;;;;7.28;2.10;;;31.70;26.60;;;;;;4951959;28;20083;-61
2022/07/05 06:33:06;;;;;;;8.10;1.88;;;31.70;26.20;;;;;;4951893;28;20079;-60
2022/07/05 06:35:33;;;;;;;6.43;1.40;;;31.70;26.70;;;;;;4951627;29;20149;-60
2022/07/05 06:38:02;;;;;;;7.20;1.70;;;31.60;26.60;;;;;;4952035;28;20157;-60
2022/07/05 06:40:37;;;;;;;4.95;1.60;;;31.50;26.90;;;;;;4919583;29;20434;-58
2022/07/05 06:43:08;;;;;;;11.48;1.83;;;31.50;26.80;;;;;;4951127;29;20074;-60
2022/07/05 06:45:35;;;;;;;8.95;1.77;;;31.40;26.60;;;;;;4951413;29;20090;-60
2022/07/05 06:48:03;;;;;;;10.27;1.50;;;31.40;26.80;;;;;;4951376;29;21592;-61
2022/07/05 06:50:32;;;;;;;10.85;1.73;;;31.30;27.00;;;;;;4951342;28;20082;-61
2022/07/05 06:52:59;;;;;;;15.50;1.70;;;31.20;27.00;;;;;;4950383;28;20097;-59
2022/07/05 06:55:27;;;;;;;10.07;1.60;;;31.20;27.30;;;;;;4950349;28;20098;-61
2022/07/05 06:58:02;;;;;;;10.13;1.92;;;31.20;27.20;;;;;;4935027;29;20098;-61
2022/07/05 07:00:29;;;;;;;8.43;1.98;;;31.20;27.40;;;;;;4934067;29;20114;-62
2022/07/05 07:02:55;;;;;;;4.55;1.75;;;31.10;27.50;;;;;;4966645;28;20086;-61
2022/07/05 07:05:22;;;;;;;13.40;1.77;;;31.00;27.40;;;;;;4950813;29;20075;-61
2022/07/05 07:10:33;;;;;;;6.70;1.80;;;30.90;27.80;;;;;;4950399;29;20511;-60
2022/07/05 07:13:00;;;;;;;7.95;1.67;;;30.80;27.90;;;;;;4950294;28;20098;-62
2022/07/05 07:15:28;;;;;;;5.50;1.95;;;30.80;28.00;;;;;;4950312;29;20544;-60
2022/07/05 07:17:54;;;;;;;8.23;1.95;;;30.80;28.00;;;;;;4929283;29;20094;-60
2022/07/05 07:20:21;;;;;;;18.27;2.40;;;30.70;27.90;;;;;;4950385;28;20514;-60
2022/07/05 07:22:47;;;;;;;10.88;1.98;;;30.70;28.40;;;;;;4934021;29;20189;-60
2022/07/05 07:25:14;;;;;;;4.03;1.63;;;30.60;28.00;;;;;;4950304;28;20142;-60
2022/07/05 07:27:51;;;;;;;9.45;1.83;;;30.50;28.20;;;;;;4949841;28;20543;-59
2022/07/05 07:30:26;;;;;;;6.45;1.48;;;30.40;28.50;;;;;;4950140;29;20571;-59
2022/07/05 07:32:52;;;;;;;9.65;1.90;;;30.40;28.40;;;;;;4950177;28;20215;-60
2022/07/05 07:35:19;;;;;;;7.30;1.73;;;30.40;28.60;;;;;;4949770;28;20110;-61
2022/07/05 07:37:46;;;;;;;10.80;1.60;;;30.50;28.30;;;;;;4949126;28;20537;-61
2022/07/05 07:40:13;;;;;;;7.25;1.92;;;30.40;28.60;;;;;;4950410;28;20094;-60
2022/07/05 07:42:39;;;;;;;8.00;2.13;;;30.40;29.20;;;;;;4949288;29;20100;-59
2022/07/05 07:45:06;;;;;;;12.00;3.75;;;30.30;29.20;;;;;;4950796;28;20515;-59
2022/07/05 07:47:34;;;;;;;9.27;2.55;;;30.30;29.40;;;;;;4925001;29;20422;-59
2022/07/05 07:50:01;;;;;;;9.20;2.10;;;30.20;28.40;;;;;;4933895;29;20110;-58
2022/07/05 07:52:30;;;;;;;8.60;2.00;;;30.10;29.40;;;;;;4950345;28;20078;-62
2022/07/05 07:54:57;;;;;;;8.07;1.77;;;30.20;28.70;;;;;;4950270;29;20087;-60
2022/07/05 07:57:23;;;;;;;14.13;2.45;;;30.10;28.90;;;;;;4949736;28;20078;-60
2022/07/05 07:59:50;;;;;;;9.50;2.22;;;30.00;29.10;;;;;;4950154;28;20110;-61
2022/07/05 08:02:17;;;;;;;9.30;2.08;;;30.00;28.90;;;;;;4949939;28;20442;-59
2022/07/05 08:04:43;;;;;;;12.57;2.33;;;30.00;30.00;;;;;;4933115;29;20525;-59
2022/07/05 08:07:10;;;;;;;10.40;2.00;;;30.00;29.90;;;;;;4949361;28;20137;-60
2022/07/05 08:09:36;;;;;;;6.15;1.67;;;29.90;30.00;;;;;;4949485;28;20083;-60
2022/07/05 08:12:03;;;;;;;13.68;2.17;;;29.90;30.00;;;;;;4949601;29;20084;-62
2022/07/05 08:14:29;;;;;;;6.13;1.90;;;29.90;30.00;;;;;;4949040;28;20133;-61
2022/07/05 08:16:55;;;;;;;10.82;2.28;;;29.80;30.10;;;;;;4949112;28;20453;-60
2022/07/05 08:22:07;;;;;;;13.75;2.20;;;29.80;30.20;;;;;;4950949;29;20079;-61
2022/07/05 08:24:42;;;;;;;7.93;2.40;;;29.80;29.60;;;;;;4949287;29;20078;-63
2022/07/05 08:27:09;;;;;;;13.70;2.70;;;29.90;29.60;;;;;;4950082;29;20478;-60
2022/07/05 08:29:36;;;;;;;10.95;2.95;;;29.80;29.40;;;;;;4949507;28;20088;-62
2022/07/05 08:32:03;;;;;;;14.00;2.75;;;29.80;29.50;;;;;;4949221;28;20170;-61
2022/07/05 08:34:30;;;;;;;13.90;2.72;;;29.80;29.70;;;;;;4948876;29;20078;-61
2022/07/05 08:36:56;;;;;;;15.93;2.80;;;29.80;30.40;;;;;;4948864;28;20090;-62
2022/07/05 08:39:23;;;;;;;9.65;2.35;;;29.80;30.10;;;;;;4949808;29;20103;-60
2022/07/05 08:41:50;;;;;;;12.27;2.40;;;29.70;29.80;;;;;;4950130;28;20445;-61
2022/07/05 08:44:20;;;;;;;15.00;2.53;;;29.80;30.10;;;;;;4949742;28;20727;-60
2022/07/05 08:46:48;;;;;;;19.92;2.65;;;29.60;30.60;;;;;;4953863;29;20170;-59
2022/07/05 08:49:15;;;;;;;14.85;2.45;;;29.40;30.00;;;;;;4953821;29;20585;-62
2022/07/05 08:51:42;;;;;;;9.93;2.20;;;29.40;31.40;;;;;;4952984;28;20072;-61
2022/07/05 08:54:11;;;;;;;13.88;2.30;;;29.40;31.60;;;;;;4952854;29;20078;-61
2022/07/05 08:56:40;;;;;;;17.30;2.42;;;29.40;30.50;;;;;;4952189;28;20118;-60
2022/07/05 08:59:07;;;;;;;12.32;2.40;;;29.50;30.20;;;;;;4950734;29;20075;-63
2022/07/05 09:01:35;;;;;;;12.73;2.33;;;29.50;30.90;;;;;;4953697;28;20497;-61
2022/07/05 09:04:04;;;;;;;9.70;2.35;;;29.50;30.00;;;;;;4952888;28;20126;-60
2022/07/05 09:06:34;;;;;;;11.00;2.28;;;29.40;30.60;;;;;;4953713;28;20086;-60
2022/07/05 09:09:02;;;;;;;13.13;2.50;;;29.40;30.40;;;;;;4951873;28;20089;-62
2022/07/05 09:11:40;;;;;;;7.68;2.22;;;29.30;30.40;;;;;;4952592;29;20483;-60
2022/07/05 09:14:21;;;;;;;9.43;2.10;;;29.30;31.00;;;;;;4952929;29;20447;-60
2022/07/05 09:16:48;;;;;;;17.95;3.40;;;29.30;29.90;;;;;;4969097;28;20133;-60
2022/07/05 09:19:15;;;;;;;14.00;2.60;;;29.30;30.10;;;;;;4952197;28;20083;-61
2022/07/05 09:21:41;;;;;;;11.23;3.05;;;29.30;29.80;;;;;;4952338;28;20071;-60
2022/07/05 09:24:12;;;;;;;16.23;2.83;;;29.30;29.60;;;;;;4952309;29;20068;-60
2022/07/05 09:26:44;;;;;;;15.50;2.65;;;29.20;29.90;;;;;;4952835;29;20713;-60
2022/07/05 09:29:13;;;;;;;8.70;2.30;;;29.30;29.40;;;;;;4952361;29;20111;-60
2022/07/05 09:31:44;;;;;;;11.82;2.95;;;29.30;28.90;;;;;;4953022;28;20556;-61
2022/07/05 09:34:20;;;;;;;12.85;2.28;;;29.30;28.40;;;;;;4952037;29;20518;-61
2022/07/05 09:36:54;;;;;;;9.63;2.17;;;29.30;29.10;;;;;;4951824;29;20182;-60
2022/07/05 09:39:30;;;;;;;5.78;1.92;;;29.20;27.90;;;;;;4952106;28;20078;-60
2022/07/05 09:42:14;;;;;;;13.27;2.22;;;29.20;28.50;;;;;;4952059;29;20541;-60
2022/07/05 09:44:48;;;;;;;10.50;2.30;;;29.20;28.60;;;;;;4951505;29;20076;-60
2022/07/05 09:47:17;;;;;;;12.35;2.40;;;29.00;29.20;;;;;;4950689;28;20075;-60
2022/07/05 09:50:03;;;;;;;7.85;2.97;;;29.00;29.30;;;;;;4952642;29;20078;-61
2022/07/05 09:52:36;;;;;;;18.10;3.77;;;29.10;28.50;;;;;;4951865;29;20091;-61
2022/07/05 09:55:07;;;;;;;10.52;3.60;;;29.10;28.00;;;;;;4951880;29;20432;-60
2022/07/05 09:57:36;;;;;;;15.05;3.28;;;29.20;28.30;;;;;;4950127;28;20083;-60
2022/07/05 10:00:06;;;;;;;15.07;3.58;;;29.20;28.60;;;;;;4952567;28;20589;-60
2022/07/05 10:02:51;;;;;;;11.73;3.33;;;29.20;28.50;;;;;;4950497;29;20142;-60
2022/07/05 10:05:22;;;;;;;18.27;3.40;;;29.10;29.40;;;;;;4951666;29;20093;-60
2022/07/05 10:07:51;;;;;;;14.32;3.20;;;29.10;29.40;;;;;;4951093;28;20079;-59
2022/07/05 10:10:22;;;;;;;15.88;3.80;;;29.10;29.20;;;;;;4951901;29;20127;-60
2022/07/05 10:12:50;;;;;;;13.40;4.20;;;29.20;29.80;;;;;;4950824;29;20537;-59
2022/07/05 10:15:22;;;;;;;12.73;3.40;;;29.10;30.40;;;;;;4951139;28;20098;-60
2022/07/05 10:17:54;;;;;;;14.82;3.58;;;29.10;29.80;;;;;;4950227;28;20133;-61
2022/07/05 10:20:41;;;;;;;18.98;3.85;;;29.10;29.40;;;;;;4949712;29;20079;-60
2022/07/05 10:23:12;;;;;;;17.80;3.70;;;29.10;29.30;;;;;;4948617;29;20108;-60
2022/07/05 10:25:41;;;;;;;14.30;3.78;;;29.20;29.80;;;;;;4951164;28;20178;-61
2022/07/05 10:28:08;;;;;;;12.57;3.65;;;29.10;30.60;;;;;;4950231;29;20095;-60
2022/07/05 10:30:35;;;;;;;20.23;3.85;;;29.20;31.50;;;;;;4951645;29;20110;-61
2022/07/05 10:33:07;;;;;;;13.75;4.38;;;29.10;31.70;;;;;;4951240;28;20166;-60
2022/07/05 10:35:34;;;;;;;24.23;6.57;;;29.10;32.40;;;;;;4950146;29;20098;-62
2022/07/05 10:38:02;;;;;;;18.80;7.68;;;29.10;32.80;;;;;;4967315;28;20134;-62
2022/07/05 10:40:31;;;;;;;17.52;8.15;;;29.20;33.00;;;;;;4951010;29;20083;-60
2022/07/05 10:43:02;;;;;;;22.83;9.13;;;29.10;33.40;;;;;;4952216;29;20086;-59
2022/07/05 10:45:38;;;;;;;20.63;8.15;;;28.90;36.90;;;;;;4949698;29;20078;-60
2022/07/05 10:48:27;;;;;;;16.35;6.13;;;28.90;39.30;;;;;;4950825;29;20068;-60
2022/07/05 10:50:58;;;;;;;11.85;4.28;;;28.80;43.30;;;;;;4951659;28;20134;-60
2022/07/05 10:53:26;;;;;;;20.15;4.28;;;28.80;45.30;;;;;;4934698;29;20074;-59
2022/07/05 10:55:57;;;;;;;16.33;3.30;;;28.70;46.70;;;;;;4950610;29;20098;-60
2022/07/05 10:58:37;;;;;;;15.25;3.58;;;28.70;48.70;;;;;;4950993;29;20068;-59
2022/07/05 11:01:15;;;;;;;11.50;2.95;;;28.70;49.40;;;;;;4951443;29;20114;-60
2022/07/05 11:03:45;;;;;;;16.88;3.35;;;28.60;50.20;;;;;;4950428;28;20088;-60
2022/07/05 11:06:46;;;;;;;12.60;3.25;;;28.70;50.30;;;;;;4950582;28;20640;-59
2022/07/05 11:09:13;;;;;;;13.27;3.38;;;28.70;50.50;;;;;;4877011;29;20175;-59
2022/07/05 11:11:52;;;;;;;11.38;3.00;;;28.60;51.30;;;;;;4892592;29;20083;-62
2022/07/05 11:14:30;;;;;;;10.52;3.08;;;28.50;52.00;;;;;;4891805;29;20543;-60
2022/07/05 11:17:22;;;;;;;11.00;3.20;;;28.50;52.50;;;;;;4892224;29;20572;-60
2022/07/05 11:20:19;;;;;;;19.48;3.53;;;28.50;53.00;;;;;;4876681;29;20080;-60
2022/07/05 11:23:06;;;;;;;17.17;3.30;;;28.40;53.40;;;;;;4878067;29;20069;-59
2022/07/05 11:25:34;;;;;;;;;;;28.40;53.40;;;;;;4877093;29;20083;-60
2022/07/05 11:28:01;;;;;;;19.83;3.33;;;28.40;53.70;;;;;;4876565;29;20442;-60
2022/07/05 11:30:28;;;;;;;15.15;3.38;;;28.40;54.30;;;;;;4877027;29;20081;-61
2022/07/05 11:32:54;;;;;;;15.88;3.30;;;28.30;54.70;;;;;;4877139;29;20088;-60
2022/07/05 11:35:29;;;;;;;14.07;3.10;;;28.20;55.10;;;;;;4891783;29;20622;-60
2022/07/05 11:38:08;;;;;;;13.23;3.55;;;28.10;55.60;;;;;;4876624;29;20079;-59
2022/07/05 11:40:40;;;;;;;16.58;3.50;;;27.90;56.50;;;;;;4876629;29;20067;-62
2022/07/05 11:43:08;;;;;;;18.27;3.15;;;28.00;57.10;;;;;;4875870;29;20152;-60
2022/07/05 11:45:35;;;;;;;13.52;3.22;;;28.00;56.90;;;;;;4912920;29;20137;-61
2022/07/05 11:48:03;;;;;;;11.73;2.85;;;28.10;57.00;;;;;;4950014;28;20958;-62
2022/07/05 11:50:32;;;;;;;8.63;2.55;;;28.10;57.50;;;;;;4949732;29;20076;-62
2022/07/05 11:53:00;;;;;;;11.95;2.50;;;28.10;57.40;;;;;;4949109;29;20083;-60
2022/07/05 11:55:28;;;;;;;11.82;3.03;;;27.90;57.50;;;;;;4949522;28;20096;-59
2022/07/05 11:57:57;;;;;;;16.42;3.60;;;27.90;58.70;;;;;;4949069;28;20075;-62
2022/07/05 12:00:35;;;;;;;13.25;3.15;;;27.80;59.00;;;;;;4949465;29;20586;-61
2022/07/05 12:03:14;;;;;;;12.57;3.20;;;27.80;59.50;;;;;;4949166;29;20469;-61
2022/07/05 12:05:40;;;;;;;13.52;3.30;;;27.90;59.60;;;;;;4933819;29;20086;-61
2022/07/05 12:08:07;;;;;;;16.55;4.18;;;27.80;59.80;;;;;;4949653;28;20560;-60
2022/07/05 12:13:18;;;;;;;18.05;4.13;;;27.80;59.70;;;;;;4949489;29;20122;-60
2022/07/05 12:15:46;;;;;;;18.63;4.10;;;27.70;61.00;;;;;;4949526;28;20542;-60
2022/07/05 12:18:14;;;;;;;18.30;3.67;;;27.70;61.20;;;;;;4948604;28;20110;-61
2022/07/05 12:20:40;;;;;;;13.23;4.10;;;27.70;61.50;;;;;;4949650;28;20179;-63
2022/07/05 12:23:07;;;;;;;23.33;4.93;;;27.80;61.40;;;;;;4950600;29;20068;-61
2022/07/05 12:25:35;;;;;;;21.92;4.10;;;27.80;61.30;;;;;;4948953;29;20118;-59
2022/07/05 12:28:05;;;;;;;25.02;4.65;;;27.80;61.60;;;;;;4933139;29;20126;-61
2022/07/05 12:30:32;;;;;;;25.00;4.30;;;27.80;62.80;;;;;;4949825;28;20549;-59
2022/07/05 12:33:03;;;;;;;19.30;4.43;;;27.80;62.80;;;;;;4949953;28;20102;-59
2022/07/05 12:35:32;;;;;;;15.68;4.43;;;27.80;63.50;;;;;;4948613;29;20094;-60
2022/07/05 12:38:18;;;;;;;17.00;4.18;;;27.80;63.20;;;;;;4948927;28;20437;-60
2022/07/05 12:40:58;;;;;;;17.33;4.20;;;27.80;63.70;;;;;;4949776;29;20163;-61
2022/07/05 12:43:25;;;;;;;19.77;3.70;;;27.80;63.80;;;;;;4950630;28;20073;-60
2022/07/05 12:46:08;;;;;;;22.13;3.38;;;27.90;63.90;;;;;;4950025;28;20119;-62
2022/07/05 12:48:38;;;;;;;23.92;4.13;;;27.80;63.80;;;;;;4932528;29;20083;-60
2022/07/05 12:51:07;;;;;;;15.85;3.67;;;27.80;63.90;;;;;;4949440;28;20437;-59
2022/07/05 12:59:09;;;;;;;20.80;4.28;;;27.80;64.40;;;;;;4948955;29;20095;-61
2022/07/05 13:01:43;;;;;;;24.10;4.90;;;27.80;64.50;;;;;;4933178;29;20177;-60
2022/07/05 13:04:12;;;;;;;24.95;4.60;;;27.70;64.90;;;;;;4949098;28;20074;-60